| time (UTC) | temp F | wind direction | speed MPH | gust MPH | rain 1hr in | rain 24hr in | rain mn in | humidity % | barometer mb |
| 20260903033515 | 76 | 86 | 0.0 | 0.0 | 0.00 | 0.90 | 0.90 | 96 | 1015.1 |
| 20260903033032 | 76 | 86 | 0.0 | 0.0 | 0.00 | 0.90 | 0.90 | 96 | 1014.9 |
| 20260903032515 | 76 | 86 | 0.0 | 0.0 | 0.00 | 0.90 | 0.90 | 96 | 1014.6 |
| 20260903032018 | 76 | 86 | 0.0 | 0.0 | 0.00 | 0.90 | 0.90 | 96 | 1014.4 |
| 20260903031534 | 76 | 86 | 0.0 | 0.0 | 0.00 | 0.90 | 0.90 | 96 | 1014.4 |
| 20260903031015 | 76 | 86 | 0.0 | 0.0 | 0.00 | 0.90 | 0.90 | 96 | 1014.4 |
| 20260903030512 | 76 | 86 | 0.0 | 0.0 | 0.00 | 0.90 | 0.90 | 96 | 1014.4 |
| 20260903030034 | 76 | 86 | 0.0 | 0.0 | 0.00 | 0.90 | 0.90 | 96 | 1014.3 |
| 20260903025519 | 76 | 86 | 0.0 | 0.0 | 0.00 | 0.90 | 0.90 | 96 | 1014.3 |
| 20260903025017 | 76 | 86 | 0.0 | 0.0 | 0.00 | 0.90 | 0.90 | 96 | 1014.2 |
| 20260903024531 | 76 | 86 | 0.0 | 0.0 | 0.00 | 0.90 | 0.90 | 96 | 1014.1 |
| 20260903024014 | 76 | 86 | 0.0 | 0.0 | 0.00 | 0.90 | 0.90 | 95 | 1014.1 |
| 20260903023517 | 76 | 86 | 0.0 | 0.0 | 0.00 | 0.90 | 0.90 | 95 | 1014.1 |
| 20260903023030 | 76 | 86 | 0.0 | 0.0 | 0.00 | 0.90 | 0.90 | 95 | 1014.0 |
| 20260903022518 | 76 | 86 | 0.0 | 0.0 | 0.00 | 0.90 | 0.90 | 95 | 1013.9 |
| 20260903022019 | 76 | 86 | 0.0 | 0.0 | 0.00 | 0.90 | 0.90 | 95 | 1013.7 |
| 20260903021528 | 76 | 86 | 0.0 | 0.0 | 0.00 | 0.90 | 0.90 | 95 | 1013.5 |
| 20260903021021 | 76 | 86 | 0.0 | 0.0 | 0.00 | 0.90 | 0.90 | 95 | 1013.4 |
| 20260903020517 | 76 | 86 | 0.0 | 0.0 | 0.00 | 0.90 | 0.90 | 95 | 1013.3 |
| 20260903020006 | 76 | 79 | 0.0 | 0.0 | 0.00 | 0.90 | 0.90 | 95 | 1013.1 |
| 20260903015509 | 76 | 82 | 0.0 | 0.0 | 0.00 | 0.90 | 0.90 | 95 | 1013.0 |
| 20260903015004 | 76 | 76 | 0.0 | 0.0 | 0.00 | 0.90 | 0.90 | 95 | 1013.0 |
| 20260903014503 | 76 | 81 | 0.0 | 0.0 | 0.00 | 0.90 | 0.90 | 95 | 1013.0 |
| 20260903014009 | 76 | 87 | 0.0 | 0.0 | 0.01 | 0.90 | 0.90 | 95 | 1013.1 |
| 20260903013504 | 76 | 76 | 0.0 | 0.0 | 0.03 | 0.90 | 0.90 | 95 | 1012.9 |
| 20260903013020 | 76 | 72 | 0.0 | 0.0 | 0.17 | 0.90 | 0.90 | 95 | 1012.8 |
| 20260903012505 | 76 | 90 | 0.0 | 1.0 | 0.57 | 0.90 | 0.90 | 95 | 1013.1 |
| 20260903012004 | 76 | 97 | 0.0 | 1.0 | 0.88 | 0.90 | 0.90 | 94 | 1013.0 |
| 20260903011519 | 76 | 106 | 0.0 | 1.0 | 0.90 | 0.90 | 0.90 | 94 | 1012.9 |
| 20260903011004 | 76 | 96 | 0.0 | 1.0 | 0.90 | 0.90 | 0.90 | 94 | 1013.2 |
| 20260903010504 | 76 | 68 | 0.0 | 3.0 | 0.90 | 0.90 | 0.90 | 93 | 1013.2 |
| 20260903010016 | 76 | 80 | 1.0 | 3.0 | 0.90 | 0.90 | 0.90 | 93 | 1013.2 |
| 20260903005504 | 77 | 98 | 0.0 | 4.0 | 0.90 | 0.90 | 0.90 | 93 | 1013.0 |
| 20260903005012 | 78 | 74 | 0.0 | 4.0 | 0.90 | 0.90 | 0.90 | 93 | 1013.1 |
| 20260903004520 | 78 | 68 | 1.0 | 3.0 | 0.90 | 0.90 | 0.90 | 93 | 1013.2 |
| 20260903004003 | 78 | 89 | 0.0 | 5.0 | 0.89 | 0.89 | 0.89 | 92 | 1013.0 |
| 20260903003510 | 78 | 93 | 0.0 | 5.0 | 0.87 | 0.87 | 0.87 | 92 | 1012.7 |
| 20260903003017 | 79 | 96 | 2.0 | 5.0 | 0.73 | 0.73 | 0.73 | 91 | 1012.4 |
| 20260903002517 | 80 | 49 | 0.0 | 5.0 | 0.33 | 0.33 | 0.33 | 89 | 1013.2 |
| 20260903002008 | 81 | 8 | 0.0 | 3.0 | 0.02 | 0.02 | 0.02 | 86 | 1013.3 |
| 20260903001517 | 81 | 286 | 0.0 | 1.0 | 0.00 | 0.00 | 0.00 | 83 | 1013.1 |
| 20260903001013 | 81 | 311 | 0.0 | 3.0 | 0.00 | 0.00 | 0.00 | 82 | 1012.8 |
| 20260903000505 | 82 | 301 | 0.0 | 4.0 | 0.00 | 0.00 | 0.00 | 81 | 1012.7 |
| 20260903000006 | 83 | 99 | 0.0 | 7.0 | 0.00 | 0.00 | 0.00 | 80 | 1012.3 |
| 20260902235510 | 84 | 339 | 0.0 | 7.0 | 0.00 | 0.00 | 0.00 | 77 | 1012.5 |
| 20260902235005 | 86 | 326 | 0.0 | 1.0 | 0.00 | 0.00 | 0.00 | 74 | 1012.3 |
| 20260902234526 | 86 | 18 | 0.0 | 0.0 | 0.00 | 0.00 | 0.00 | 74 | 1012.0 |
| 20260902234009 | 86 | 18 | 0.0 | 0.0 | 0.00 | 0.00 | 0.00 | 73 | 1011.7 |
| 20260902233504 | 86 | 18 | 0.0 | 0.0 | 0.00 | 0.00 | 0.00 | 73 | 1011.6 |
| 20260902233026 | 86 | 18 | 0.0 | 0.0 | 0.00 | 0.00 | 0.00 | 73 | 1011.4 |
| 20260902232503 | 85 | 310 | 0.0 | 2.0 | 0.00 | 0.00 | 0.00 | 73 | 1011.6 |
| 20260902232003 | 86 | 309 | 0.0 | 2.0 | 0.00 | 0.00 | 0.00 | 72 | 1011.8 |
| 20260902231526 | 86 | 345 | 0.0 | 2.0 | 0.00 | 0.00 | 0.00 | 71 | 1011.9 |
| 20260902230513 | 87 | 55 | 0.0 | 3.0 | 0.00 | 0.00 | 0.00 | 67 | 1011.7 |
| 20260902230019 | 88 | 129 | 0.0 | 3.0 | 0.00 | 0.00 | 0.00 | 66 | 1011.7 |
| 20260902225503 | 88 | 174 | 0.0 | 0.0 | 0.00 | 0.00 | 0.00 | 66 | 1011.6 |
| 20260902225015 | 88 | 91 | 0.0 | 1.0 | 0.00 | 0.00 | 0.00 | 66 | 1011.5 |
| 20260902224513 | 88 | 95 | 0.0 | 1.0 | 0.00 | 0.00 | 0.00 | 66 | 1011.7 |
| 20260902224016 | 89 | 77 | 0.0 | 3.0 | 0.00 | 0.00 | 0.00 | 65 | 1011.6 |
| 20260902223509 | 90 | 22 | 0.0 | 3.0 | 0.00 | 0.00 | 0.00 | 63 | 1011.7 |
| 20260902223010 | 91 | 327 | 0.0 | 1.0 | 0.00 | 0.00 | 0.00 | 63 | 1011.8 |
| 20260902222517 | 91 | 317 | 0.0 | 1.0 | 0.00 | 0.00 | 0.00 | 62 | 1011.7 |
| 20260902222010 | 92 | 58 | 0.0 | 1.0 | 0.00 | 0.00 | 0.00 | 62 | 1011.7 |
| 20260902221509 | 92 | 64 | 0.0 | 1.0 | 0.00 | 0.00 | 0.00 | 60 | 1011.5 |
| 20260902221013 | 91 | 82 | 0.0 | 0.0 | 0.00 | 0.00 | 0.00 | 61 | 1011.6 |
| 20260902220507 | 91 | 81 | 0.0 | 0.0 | 0.00 | 0.00 | 0.00 | 63 | 1011.5 |
| 20260902220041 | 90 | 82 | 0.0 | 0.0 | 0.00 | 0.00 | 0.00 | 65 | 1011.2 |
| 20260902215512 | 90 | 81 | 0.0 | 1.0 | 0.00 | 0.00 | 0.00 | 66 | 1011.3 |
| 20260902215006 | 90 | 82 | 0.0 | 4.0 | 0.00 | 0.00 | 0.00 | 66 | 1011.5 |
| 20260902214532 | 91 | 136 | 0.0 | 4.0 | 0.00 | 0.00 | 0.00 | 64 | 1011.6 |
| 20260902214008 | 93 | 27 | 0.0 | 2.0 | 0.00 | 0.00 | 0.00 | 62 | 1011.7 |
| 20260902213504 | 93 | 209 | 0.0 | 1.0 | 0.00 | 0.00 | 0.00 | 59 | 1011.7 |
| 20260902213026 | 93 | 101 | 0.0 | 1.0 | 0.00 | 0.00 | 0.00 | 59 | 1011.7 |
| 20260902212507 | 93 | 99 | 0.0 | 1.0 | 0.00 | 0.00 | 0.00 | 59 | 1011.6 |
| 20260902212014 | 94 | 99 | 0.0 | 4.0 | 0.00 | 0.00 | 0.00 | 59 | 1011.8 |
| 20260902211523 | 95 | 89 | 0.0 | 4.0 | 0.00 | 0.00 | 0.00 | 57 | 1011.8 |
| 20260902211006 | 96 | 115 | 0.0 | 4.0 | 0.00 | 0.00 | 0.00 | 54 | 1012.0 |
| 20260902210514 | 96 | 120 | 0.0 | 6.0 | 0.00 | 0.00 | 0.00 | 53 | 1011.9 |
| 20260902210040 | 96 | 217 | 0.0 | 6.0 | 0.00 | 0.00 | 0.00 | 53 | 1012.0 |
| 20260902205503 | 96 | 56 | 0.0 | 3.0 | 0.00 | 0.00 | 0.00 | 54 | 1012.0 |
| 20260902205014 | 95 | 214 | 0.0 | 3.0 | 0.00 | 0.00 | 0.00 | 54 | 1011.9 |
| 20260902204517 | 96 | 110 | 0.0 | 3.0 | 0.00 | 0.00 | 0.00 | 54 | 1012.0 |
| 20260902204016 | 96 | 259 | 0.0 | 2.0 | 0.00 | 0.00 | 0.00 | 54 | 1012.1 |
| 20260902203512 | 96 | 199 | 0.0 | 3.0 | 0.00 | 0.00 | 0.00 | 53 | 1012.1 |
| 20260902203014 | 96 | 254 | 0.0 | 3.0 | 0.00 | 0.00 | 0.00 | 53 | 1012.0 |
| 20260902202515 | 97 | 209 | 0.0 | 3.0 | 0.00 | 0.00 | 0.00 | 52 | 1012.2 |
| 20260902202007 | 97 | 111 | 0.0 | 4.0 | 0.00 | 0.00 | 0.00 | 52 | 1012.2 |
| 20260902201535 | 98 | 199 | 1.0 | 4.0 | 0.00 | 0.00 | 0.00 | 51 | 1012.1 |
| 20260902201010 | 98 | 238 | 0.0 | 5.0 | 0.00 | 0.00 | 0.00 | 52 | 1012.2 |
| 20260902200508 | 97 | 221 | 0.0 | 5.0 | 0.00 | 0.00 | 0.00 | 53 | 1012.3 |
| 20260902200028 | 97 | 266 | 0.0 | 10.0 | 0.00 | 0.00 | 0.00 | 51 | 1012.3 |
| 20260902195511 | 98 | 193 | 0.0 | 10.0 | 0.00 | 0.00 | 0.00 | 50 | 1012.3 |
| 20260902195006 | 98 | 219 | 0.0 | 5.0 | 0.00 | 0.00 | 0.00 | 50 | 1012.5 |
| 20260902194534 | 98 | 127 | 0.0 | 7.0 | 0.00 | 0.00 | 0.00 | 51 | 1012.7 |
| 20260902194007 | 98 | 176 | 0.0 | 7.0 | 0.00 | 0.00 | 0.00 | 53 | 1012.8 |
| 20260902193516 | 98 | 127 | 0.0 | 4.0 | 0.00 | 0.00 | 0.00 | 52 | 1012.9 |
| 20260902193026 | 98 | 140 | 0.0 | 5.0 | 0.00 | 0.00 | 0.00 | 53 | 1012.8 |
| 20260902192508 | 97 | 279 | 1.0 | 5.0 | 0.00 | 0.00 | 0.00 | 52 | 1013.0 |
| 20260902192016 | 98 | 198 | 0.0 | 5.0 | 0.00 | 0.00 | 0.00 | 51 | 1013.0 |
| 20260902191524 | 97 | 116 | 1.0 | 5.0 | 0.00 | 0.00 | 0.00 | 51 | 1013.2 |
| 20260902191007 | 97 | 250 | 0.0 | 5.0 | 0.00 | 0.00 | 0.00 | 51 | 1013.2 |
| 20260902190517 | 98 | 212 | 0.0 | 3.0 | 0.00 | 0.00 | 0.00 | 51 | 1013.3 |
| 20260902190025 | 98 | 228 | 0.0 | 3.0 | 0.00 | 0.00 | 0.00 | 51 | 1013.4 |
| 20260902185514 | 98 | 258 | 0.0 | 5.0 | 0.00 | 0.00 | 0.00 | 52 | 1013.4 |
| 20260902185014 | 97 | 231 | 0.0 | 5.0 | 0.00 | 0.00 | 0.00 | 53 | 1013.4 |
| 20260902184521 | 97 | 234 | 0.0 | 3.0 | 0.00 | 0.00 | 0.00 | 52 | 1013.5 |
| 20260902184018 | 98 | 231 | 0.0 | 4.0 | 0.00 | 0.00 | 0.00 | 53 | 1013.7 |
| 20260902183511 | 98 | 234 | 0.0 | 4.0 | 0.00 | 0.00 | 0.00 | 51 | 1013.7 |
| 20260902183032 | 98 | 196 | 0.0 | 5.0 | 0.00 | 0.00 | 0.00 | 51 | 1013.8 |
| 20260902182517 | 99 | 155 | 0.0 | 5.0 | 0.00 | 0.00 | 0.00 | 50 | 1013.9 |
| 20260902182010 | 100 | 113 | 1.0 | 5.0 | 0.00 | 0.00 | 0.00 | 49 | 1014.0 |
| 20260902181530 | 99 | 227 | 1.0 | 2.0 | 0.00 | 0.00 | 0.00 | 51 | 1014.1 |
| 20260902181018 | 99 | 8 | 0.0 | 4.0 | 0.00 | 0.00 | 0.00 | 52 | 1014.1 |
| 20260902180508 | 99 | 219 | 0.0 | 4.0 | 0.00 | 0.00 | 0.00 | 51 | 1014.2 |
| 20260902180031 | 99 | 267 | 0.0 | 6.0 | 0.00 | 0.00 | 0.00 | 52 | 1014.4 |
| 20260902175510 | 99 | 264 | 1.0 | 6.0 | 0.00 | 0.00 | 0.00 | 53 | 1014.5 |
| 20260902175018 | 98 | 283 | 1.0 | 4.0 | 0.00 | 0.00 | 0.00 | 54 | 1014.6 |
| 20260902174530 | 98 | 274 | 0.0 | 4.0 | 0.00 | 0.00 | 0.00 | 56 | 1014.7 |
| 20260902174009 | 97 | 231 | 0.0 | 3.0 | 0.00 | 0.00 | 0.00 | 57 | 1014.9 |
| 20260902173517 | 96 | 184 | 0.0 | 6.0 | 0.00 | 0.00 | 0.00 | 58 | 1014.9 |
| 20260902173024 | 95 | 236 | 0.0 | 6.0 | 0.00 | 0.00 | 0.00 | 62 | 1015.0 |
| 20260902172508 | 94 | 157 | 1.0 | 5.0 | 0.00 | 0.00 | 0.00 | 60 | 1015.0 |
| 20260902172019 | 93 | 226 | 0.0 | 3.0 | 0.00 | 0.00 | 0.00 | 61 | 1015.2 |
| 20260902171525 | 93 | 251 | 0.0 | 3.0 | 0.00 | 0.00 | 0.00 | 64 | 1015.3 |
| 20260902171017 | 92 | 275 | 0.0 | 2.0 | 0.00 | 0.00 | 0.00 | 67 | 1015.3 |
| 20260902170515 | 91 | 212 | 0.0 | 2.0 | 0.00 | 0.00 | 0.00 | 67 | 1015.3 |
| 20260902170019 | 91 | 264 | 0.0 | 2.0 | 0.00 | 0.00 | 0.00 | 67 | 1015.5 |
| 20260902165503 | 91 | 205 | 0.0 | 1.0 | 0.00 | 0.00 | 0.00 | 69 | 1015.6 |
| 20260902165003 | 90 | 267 | 0.0 | 1.0 | 0.00 | 0.00 | 0.00 | 70 | 1015.6 |
| 20260902164518 | 90 | 205 | 0.0 | 1.0 | 0.00 | 0.00 | 0.00 | 70 | 1015.5 |
| 20260902164004 | 90 | 265 | 0.0 | 1.0 | 0.00 | 0.00 | 0.00 | 70 | 1015.6 |
| 20260902163511 | 89 | 284 | 0.0 | 2.0 | 0.00 | 0.00 | 0.00 | 71 | 1015.6 |
| 20260902163019 | 89 | 230 | 0.0 | 2.0 | 0.00 | 0.00 | 0.00 | 72 | 1015.6 |
| 20260902162504 | 89 | 216 | 0.0 | 2.0 | 0.00 | 0.00 | 0.00 | 73 | 1015.7 |
| 20260902162011 | 88 | 226 | 0.0 | 8.0 | 0.00 | 0.00 | 0.00 | 72 | 1015.7 |
| 20260902161512 | 88 | 227 | 1.0 | 8.0 | 0.00 | 0.00 | 0.00 | 72 | 1015.7 |
| 20260902161003 | 89 | 214 | 0.0 | 3.0 | 0.00 | 0.00 | 0.00 | 73 | 1015.7 |
| 20260902160507 | 88 | 263 | 0.0 | 5.0 | 0.00 | 0.00 | 0.00 | 76 | 1015.7 |
| 20260902160010 | 88 | 252 | 1.0 | 5.0 | 0.00 | 0.00 | 0.00 | 76 | 1015.6 |
| 20260902155513 | 87 | 278 | 0.0 | 5.0 | 0.00 | 0.00 | 0.00 | 78 | 1015.6 |
| 20260902155008 | 86 | 259 | 0.0 | 5.0 | 0.00 | 0.00 | 0.00 | 79 | 1015.6 |
| 20260902154505 | 85 | 243 | 0.0 | 1.0 | 0.00 | 0.00 | 0.00 | 80 | 1015.6 |
| 20260902154012 | 84 | 257 | 0.0 | 2.0 | 0.00 | 0.00 | 0.00 | 83 | 1015.7 |
| 20260902153504 | 84 | 247 | 0.0 | 2.0 | 0.00 | 0.00 | 0.00 | 83 | 1015.7 |
| 20260902153007 | 84 | 230 | 0.0 | 1.0 | 0.00 | 0.00 | 0.00 | 83 | 1015.8 |
| 20260902152509 | 83 | 221 | 0.0 | 2.0 | 0.00 | 0.00 | 0.00 | 83 | 1015.8 |
| 20260902152011 | 83 | 223 | 0.0 | 2.0 | 0.00 | 0.00 | 0.00 | 84 | 1015.8 |
| 20260902151524 | 83 | 232 | 0.0 | 2.0 | 0.00 | 0.00 | 0.00 | 84 | 1015.8 |
| 20260902151007 | 83 | 258 | 0.0 | 1.0 | 0.00 | 0.00 | 0.00 | 85 | 1015.8 |
| 20260902150503 | 82 | 238 | 0.0 | 1.0 | 0.00 | 0.00 | 0.00 | 85 | 1015.8 |
| 20260902150023 | 82 | 214 | 0.0 | 1.0 | 0.00 | 0.00 | 0.00 | 86 | 1015.9 |
| 20260902145505 | 82 | 240 | 0.0 | 1.0 | 0.00 | 0.00 | 0.00 | 86 | 1015.7 |
| 20260902145016 | 82 | 255 | 0.0 | 3.0 | 0.00 | 0.00 | 0.00 | 86 | 1015.7 |
| 20260902144533 | 81 | 219 | 0.0 | 3.0 | 0.00 | 0.00 | 0.00 | 87 | 1015.7 |
| 20260902144003 | 81 | 191 | 0.0 | 2.0 | 0.00 | 0.00 | 0.00 | 87 | 1015.8 |
| 20260902143513 | 81 | 262 | 0.0 | 2.0 | 0.00 | 0.00 | 0.00 | 88 | 1015.8 |
| 20260902143017 | 81 | 203 | 0.0 | 1.0 | 0.00 | 0.00 | 0.00 | 88 | 1015.8 |
| 20260902142504 | 80 | 209 | 0.0 | 1.0 | 0.00 | 0.00 | 0.00 | 88 | 1015.8 |
| 20260902142010 | 80 | 222 | 0.0 | 1.0 | 0.00 | 0.00 | 0.00 | 88 | 1015.7 |
| 20260902141513 | 80 | 249 | 0.0 | 2.0 | 0.00 | 0.00 | 0.00 | 88 | 1015.8 |
| 20260902141016 | 80 | 166 | 0.0 | 2.0 | 0.00 | 0.00 | 0.00 | 88 | 1015.7 |
| 20260902140510 | 80 | 214 | 0.0 | 1.0 | 0.00 | 0.00 | 0.00 | 89 | 1015.7 |
| 20260902140010 | 80 | 212 | 0.0 | 0.0 | 0.00 | 0.00 | 0.00 | 89 | 1015.6 |
| 20260902135511 | 80 | 212 | 0.0 | 2.0 | 0.00 | 0.00 | 0.00 | 89 | 1015.6 |
| 20260902135009 | 80 | 214 | 0.0 | 2.0 | 0.00 | 0.00 | 0.00 | 89 | 1015.7 |
| 20260902134507 | 80 | 221 | 0.0 | 1.0 | 0.00 | 0.00 | 0.00 | 89 | 1015.7 |
| 20260902134011 | 80 | 221 | 0.0 | 1.0 | 0.00 | 0.00 | 0.00 | 89 | 1015.6 |
| 20260902133509 | 80 | 221 | 0.0 | 1.0 | 0.00 | 0.00 | 0.00 | 89 | 1015.6 |
| 20260902133027 | 80 | 148 | 0.0 | 1.0 | 0.00 | 0.00 | 0.00 | 89 | 1015.6 |
| 20260902132511 | 79 | 223 | 0.0 | 1.0 | 0.00 | 0.00 | 0.00 | 89 | 1015.5 |
| 20260902132009 | 79 | 227 | 0.0 | 1.0 | 0.00 | 0.00 | 0.00 | 89 | 1015.5 |
| 20260902131527 | 79 | 212 | 0.0 | 0.0 | 0.00 | 0.00 | 0.00 | 89 | 1015.4 |
| 20260902131007 | 79 | 212 | 0.0 | 0.0 | 0.00 | 0.00 | 0.00 | 89 | 1015.3 |
| 20260902130503 | 79 | 176 | 0.0 | 2.0 | 0.00 | 0.00 | 0.00 | 90 | 1015.3 |
| 20260902130032 | 79 | 227 | 0.0 | 2.0 | 0.00 | 0.00 | 0.00 | 90 | 1015.2 |
| 20260902125508 | 79 | 223 | 0.0 | 1.0 | 0.00 | 0.00 | 0.00 | 90 | 1015.1 |
| 20260902125016 | 79 | 230 | 0.0 | 1.0 | 0.00 | 0.00 | 0.00 | 90 | 1015.0 |
| 20260902124525 | 79 | 223 | 0.0 | 2.0 | 0.00 | 0.00 | 0.00 | 90 | 1015.0 |
| 20260902124005 | 79 | 221 | 0.0 | 2.0 | 0.00 | 0.00 | 0.00 | 90 | 1014.9 |
| 20260902123511 | 79 | 247 | 0.0 | 2.0 | 0.00 | 0.00 | 0.00 | 90 | 1014.7 |
| 20260902123017 | 79 | 221 | 0.0 | 2.0 | 0.00 | 0.00 | 0.00 | 90 | 1014.5 |
| 20260902122516 | 79 | 237 | 0.0 | 1.0 | 0.00 | 0.00 | 0.00 | 90 | 1014.4 |
| 20260902122013 | 79 | 222 | 0.0 | 1.0 | 0.00 | 0.00 | 0.00 | 90 | 1014.2 |
| 20260902121514 | 79 | 217 | 0.0 | 1.0 | 0.00 | 0.00 | 0.00 | 90 | 1014.1 |
| 20260902121019 | 79 | 267 | 0.0 | 1.0 | 0.00 | 0.00 | 0.00 | 90 | 1013.9 |
| 20260902120511 | 79 | 223 | 0.0 | 1.0 | 0.00 | 0.00 | 0.00 | 90 | 1013.9 |
| 20260902120011 | 79 | 241 | 0.0 | 1.0 | 0.00 | 0.00 | 0.00 | 89 | 1013.9 |
| 20260902115513 | 79 | 224 | 0.0 | 1.0 | 0.00 | 0.00 | 0.00 | 89 | 1014.0 |
| 20260902115010 | 79 | 224 | 0.0 | 1.0 | 0.00 | 0.00 | 0.00 | 89 | 1014.0 |
| 20260902114534 | 79 | 227 | 0.0 | 1.0 | 0.00 | 0.00 | 0.00 | 89 | 1013.9 |
| 20260902114014 | 79 | 248 | 0.0 | 1.0 | 0.00 | 0.00 | 0.00 | 89 | 1013.9 |
| 20260902113507 | 79 | 264 | 0.0 | 1.0 | 0.00 | 0.00 | 0.00 | 89 | 1013.9 |
| 20260902113030 | 79 | 226 | 0.0 | 1.0 | 0.00 | 0.00 | 0.00 | 89 | 1013.8 |
| 20260902112512 | 79 | 240 | 0.0 | 1.0 | 0.00 | 0.00 | 0.00 | 88 | 1013.8 |
| 20260902112012 | 79 | 224 | 0.0 | 1.0 | 0.00 | 0.00 | 0.00 | 88 | 1013.8 |
| 20260902111525 | 79 | 265 | 0.0 | 1.0 | 0.00 | 0.00 | 0.00 | 88 | 1013.8 |
| 20260902111008 | 79 | 265 | 0.0 | 1.0 | 0.00 | 0.00 | 0.00 | 88 | 1013.8 |
| 20260902110515 | 79 | 262 | 0.0 | 1.0 | 0.00 | 0.00 | 0.00 | 88 | 1013.8 |
| 20260902110026 | 79 | 238 | 0.0 | 1.0 | 0.00 | 0.00 | 0.00 | 88 | 1013.9 |
| 20260902105507 | 79 | 229 | 0.0 | 1.0 | 0.00 | 0.00 | 0.00 | 88 | 1013.9 |
| 20260902105003 | 79 | 233 | 0.0 | 1.0 | 0.00 | 0.00 | 0.00 | 88 | 1013.9 |
| 20260902104535 | 79 | 217 | 0.0 | 1.0 | 0.00 | 0.00 | 0.00 | 88 | 1013.9 |
| 20260902104009 | 79 | 236 | 0.0 | 1.0 | 0.00 | 0.00 | 0.00 | 87 | 1014.0 |
| 20260902103515 | 79 | 243 | 0.0 | 1.0 | 0.00 | 0.00 | 0.00 | 87 | 1014.0 |
| 20260902103021 | 79 | 234 | 0.0 | 1.0 | 0.00 | 0.00 | 0.00 | 87 | 1014.0 |
| 20260902102504 | 79 | 233 | 0.0 | 1.0 | 0.00 | 0.00 | 0.00 | 86 | 1013.9 |
| 20260902102014 | 79 | 233 | 0.0 | 1.0 | 0.00 | 0.00 | 0.00 | 86 | 1013.9 |
| 20260902101527 | 79 | 232 | 0.0 | 1.0 | 0.00 | 0.00 | 0.00 | 86 | 1013.9 |
| 20260902101003 | 79 | 240 | 0.0 | 1.0 | 0.00 | 0.00 | 0.00 | 86 | 1013.8 |
| 20260902100511 | 79 | 237 | 0.0 | 1.0 | 0.00 | 0.00 | 0.00 | 86 | 1013.9 |
| 20260902100012 | 79 | 238 | 0.0 | 1.0 | 0.00 | 0.00 | 0.00 | 86 | 1013.9 |
| 20260902095514 | 79 | 244 | 0.0 | 1.0 | 0.00 | 0.00 | 0.00 | 85 | 1014.0 |
| 20260902095011 | 79 | 239 | 0.0 | 1.0 | 0.00 | 0.00 | 0.00 | 85 | 1014.0 |
| 20260902094508 | 79 | 219 | 0.0 | 1.0 | 0.00 | 0.00 | 0.00 | 85 | 1014.0 |
| 20260902094014 | 79 | 215 | 0.0 | 0.0 | 0.00 | 0.00 | 0.00 | 85 | 1014.1 |
| 20260902093508 | 79 | 215 | 0.0 | 1.0 | 0.00 | 0.00 | 0.00 | 85 | 1014.0 |
| 20260902093006 | 79 | 214 | 0.0 | 1.0 | 0.00 | 0.00 | 0.00 | 85 | 1014.0 |
| 20260902092510 | 79 | 227 | 0.0 | 1.0 | 0.00 | 0.00 | 0.00 | 85 | 1013.9 |
| 20260902092012 | 79 | 219 | 0.0 | 1.0 | 0.00 | 0.00 | 0.00 | 85 | 1014.0 |
| 20260902091526 | 79 | 219 | 0.0 | 1.0 | 0.00 | 0.00 | 0.00 | 85 | 1013.9 |
| 20260902091011 | 79 | 283 | 0.0 | 0.0 | 0.00 | 0.00 | 0.00 | 85 | 1013.9 |
| 20260902090504 | 79 | 283 | 0.0 | 0.0 | 0.00 | 0.00 | 0.00 | 85 | 1013.9 |
| 20260902090026 | 79 | 311 | 0.0 | 2.0 | 0.00 | 0.00 | 0.00 | 85 | 1013.9 |
| 20260902085508 | 79 | 30 | 0.0 | 2.0 | 0.00 | 0.00 | 0.00 | 85 | 1013.9 |
| 20260902085004 | 79 | 212 | 0.0 | 0.0 | 0.00 | 0.00 | 0.00 | 84 | 1014.0 |
| 20260902084525 | 79 | 212 | 0.0 | 1.0 | 0.00 | 0.00 | 0.00 | 84 | 1013.9 |
| 20260902084010 | 79 | 212 | 0.0 | 1.0 | 0.00 | 0.00 | 0.00 | 84 | 1013.9 |
| 20260902083514 | 79 | 210 | 0.0 | 0.0 | 0.00 | 0.00 | 0.00 | 83 | 1013.8 |
| 20260902083023 | 79 | 215 | 0.0 | 0.0 | 0.00 | 0.00 | 0.00 | 83 | 1013.8 |
| 20260902082504 | 79 | 215 | 0.0 | 0.0 | 0.00 | 0.00 | 0.00 | 83 | 1013.7 |
| 20260902082017 | 79 | 215 | 0.0 | 0.0 | 0.00 | 0.00 | 0.00 | 83 | 1013.7 |
| 20260902081519 | 79 | 215 | 0.0 | 0.0 | 0.00 | 0.00 | 0.00 | 84 | 1013.8 |
| 20260902081014 | 79 | 215 | 0.0 | 0.0 | 0.00 | 0.00 | 0.00 | 84 | 1013.8 |
| 20260902080512 | 78 | 216 | 0.0 | 0.0 | 0.00 | 0.00 | 0.00 | 84 | 1013.8 |
| 20260902080015 | 78 | 215 | 0.0 | 0.0 | 0.00 | 0.00 | 0.00 | 84 | 1013.7 |
| 20260902075505 | 78 | 215 | 0.0 | 0.0 | 0.00 | 0.00 | 0.00 | 84 | 1013.8 |
| 20260902075002 | 78 | 215 | 0.0 | 0.0 | 0.00 | 0.00 | 0.00 | 84 | 1013.9 |
| 20260902074511 | 78 | 215 | 0.0 | 0.0 | 0.00 | 0.00 | 0.00 | 84 | 1013.8 |
| 20260902074004 | 78 | 215 | 0.0 | 0.0 | 0.00 | 0.00 | 0.00 | 84 | 1013.9 |
| 20260902073503 | 78 | 215 | 0.0 | 0.0 | 0.00 | 0.00 | 0.00 | 85 | 1013.9 |
| 20260902073009 | 78 | 215 | 0.0 | 0.0 | 0.00 | 0.00 | 0.00 | 85 | 1013.9 |
| 20260902072502 | 78 | 215 | 0.0 | 0.0 | 0.00 | 0.00 | 0.00 | 85 | 1013.9 |
| 20260902072016 | 78 | 215 | 0.0 | 0.0 | 0.00 | 0.00 | 0.00 | 85 | 1014.0 |
| 20260902071506 | 78 | 215 | 0.0 | 0.0 | 0.00 | 0.00 | 0.00 | 86 | 1014.1 |
| 20260902071003 | 78 | 215 | 0.0 | 0.0 | 0.00 | 0.00 | 0.00 | 86 | 1014.1 |
| 20260902070506 | 78 | 215 | 0.0 | 0.0 | 0.00 | 0.00 | 0.00 | 86 | 1014.1 |
| 20260902070006 | 77 | 215 | 0.0 | 0.0 | 0.00 | 0.00 | 0.00 | 86 | 1014.1 |
| 20260902065504 | 78 | 215 | 0.0 | 0.0 | 0.00 | 0.00 | 0.00 | 86 | 1014.2 |
| 20260902065004 | 77 | 215 | 0.0 | 0.0 | 0.00 | 0.00 | 0.00 | 86 | 1014.1 |
| 20260902064503 | 77 | 215 | 0.0 | 0.0 | 0.00 | 0.00 | 0.00 | 86 | 1014.1 |
| 20260902064008 | 77 | 215 | 0.0 | 0.0 | 0.00 | 0.00 | 0.00 | 86 | 1014.2 |
| 20260902063506 | 77 | 215 | 0.0 | 0.0 | 0.00 | 0.00 | 0.00 | 87 | 1014.3 |
| 20260902063003 | 77 | 215 | 0.0 | 0.0 | 0.00 | 0.00 | 0.00 | 87 | 1014.3 |
| 20260902062507 | 77 | 215 | 0.0 | 1.0 | 0.00 | 0.00 | 0.00 | 87 | 1014.3 |
| 20260902062003 | 77 | 215 | 0.0 | 1.0 | 0.00 | 0.00 | 0.00 | 87 | 1014.2 |
| 20260902061535 | 77 | 215 | 0.0 | 1.0 | 0.00 | 0.00 | 0.00 | 87 | 1014.0 |
| 20260902061006 | 77 | 215 | 0.0 | 1.0 | 0.00 | 0.00 | 0.00 | 87 | 1014.0 |
| 20260902060502 | 77 | 215 | 0.0 | 1.0 | 0.00 | 0.00 | 0.00 | 87 | 1013.9 |
| 20260902060016 | 77 | 215 | 0.0 | 0.0 | 0.00 | 0.00 | 0.00 | 87 | 1014.0 |
| 20260902055505 | 77 | 215 | 0.0 | 0.0 | 0.00 | 0.00 | 0.00 | 87 | 1014.0 |
| 20260902055003 | 77 | 215 | 0.0 | 0.0 | 0.00 | 0.00 | 0.00 | 87 | 1013.9 |
| 20260902054514 | 77 | 215 | 0.0 | 1.0 | 0.00 | 0.00 | 0.00 | 87 | 1013.9 |
| 20260902054003 | 77 | 216 | 0.0 | 1.0 | 0.00 | 0.00 | 0.00 | 87 | 1014.1 |
| 20260902053511 | 77 | 212 | 0.0 | 0.0 | 0.00 | 0.00 | 0.00 | 88 | 1013.9 |
| 20260902053012 | 77 | 198 | 0.0 | 0.0 | 0.00 | 0.00 | 0.00 | 88 | 1013.7 |
| 20260902052507 | 77 | 198 | 0.0 | 0.0 | 0.00 | 0.00 | 0.00 | 88 | 1013.8 |
| 20260902052014 | 77 | 198 | 0.0 | 0.0 | 0.00 | 0.00 | 0.00 | 88 | 1014.1 |
| 20260902051506 | 77 | 199 | 0.0 | 0.0 | 0.00 | 0.00 | 0.00 | 88 | 1014.0 |
| 20260902051004 | 77 | 198 | 0.0 | 0.0 | 0.00 | 0.00 | 0.00 | 88 | 1014.0 |
| 20260902050508 | 77 | 196 | 0.0 | 1.0 | 0.00 | 0.00 | 0.00 | 88 | 1014.1 |
| 20260902050009 | 77 | 196 | 0.0 | 1.0 | 0.00 | 0.00 | 0.00 | 88 | 1014.1 |
| 20260902045510 | 77 | 346 | 0.0 | 1.0 | 0.00 | 0.00 | 0.00 | 88 | 1013.9 |
| 20260902045006 | 77 | 13 | 0.0 | 0.0 | 0.00 | 0.00 | 0.00 | 89 | 1013.9 |
| 20260902044504 | 77 | 13 | 0.0 | 0.0 | 0.00 | 0.00 | 0.00 | 89 | 1014.1 |
| 20260902044009 | 77 | 13 | 0.0 | 0.0 | 0.00 | 0.00 | 0.00 | 89 | 1013.9 |
| 20260902043505 | 77 | 13 | 0.0 | 0.0 | 0.00 | 0.00 | 0.00 | 89 | 1014.0 |
| 20260902043003 | 77 | 13 | 0.0 | 0.0 | 0.00 | 0.00 | 0.00 | 89 | 1014.0 |
| 20260902042508 | 77 | 13 | 0.0 | 0.0 | 0.00 | 0.00 | 0.00 | 89 | 1014.1 |
| 20260902042003 | 77 | 13 | 0.0 | 0.0 | 0.00 | 0.00 | 0.00 | 89 | 1014.2 |
| 20260902041522 | 77 | 13 | 0.0 | 0.0 | 0.00 | 0.00 | 0.00 | 89 | 1014.1 |
| 20260902041006 | 77 | 13 | 0.0 | 0.0 | 0.00 | 0.00 | 0.00 | 89 | 1014.4 |
| 20260902040503 | 77 | 13 | 0.0 | 0.0 | 0.00 | 0.00 | 0.00 | 89 | 1014.3 |
| 20260902040019 | 77 | 13 | 0.0 | 0.0 | 0.00 | 0.00 | 0.00 | 89 | 1014.4 |
| 20260902035503 | 77 | 13 | 0.0 | 0.0 | 0.00 | 0.00 | 0.00 | 89 | 1014.4 |
| 20260902035016 | 77 | 13 | 0.0 | 0.0 | 0.00 | 0.00 | 0.00 | 90 | 1014.3 |
| 20260902034514 | 77 | 13 | 0.0 | 0.0 | 0.00 | 0.00 | 0.00 | 90 | 1014.3 |
| 20260902034002 | 77 | 13 | 0.0 | 0.0 | 0.00 | 0.00 | 0.00 | 90 | 1014.3 |